Time;durP1;ratioP1;P1;durP2;ratioP2;P2;SDS_P1;SDS_P2;PMS_P1;PMS_P2;Temp;Humidity;BMP_temperature;BMP_pressure;BME280_temperature;BME280_humidity;BME280_pressure;Samples;Min_cycle;Max_cycle;Signal;HPM_P1;HPM_P2
2024/01/01 00:02:04;;;;;;;0.20;0.20;;;;;;;4.01;71.12;101411.53;4933309;29;20414;-87
2024/01/01 00:04:30;;;;;;;0.10;0.10;;;;;;;4.01;70.99;101398.75;4932223;29;20514;-88
2024/01/01 00:06:56;;;;;;;0.10;0.10;;;;;;;3.88;71.25;101394.59;4932183;29;20059;-90
2024/01/01 00:09:21;;;;;;;0.10;0.10;;;;;;;3.78;71.32;101393.00;4915936;29;20061;-89
2024/01/01 00:11:47;;;;;;;0.20;0.20;;;;;;;3.72;72.01;101388.75;4932035;29;20042;-89
2024/01/01 00:14:12;;;;;;;0.17;0.17;;;;;;;3.66;72.53;101394.81;4931613;29;20056;-87
2024/01/01 00:16:38;;;;;;;0.20;0.20;;;;;;;3.71;71.81;101402.44;4916413;29;20035;-87
2024/01/01 00:19:03;;;;;;;0.10;0.10;;;;;;;3.43;72.12;101365.97;4933029;29;20075;-87
2024/01/01 00:21:29;;;;;;;0.17;0.17;;;;;;;3.54;72.30;101392.34;4933720;29;20042;-89
2024/01/01 00:23:54;;;;;;;0.10;0.10;;;;;;;3.29;72.60;101368.66;4932224;29;20032;-88
2024/01/01 00:26:20;;;;;;;0.20;0.20;;;;;;;3.52;71.97;101404.28;4931958;29;20330;-87
2024/01/01 00:28:46;;;;;;;0.10;0.10;;;;;;;3.56;72.58;101405.13;4931877;29;20063;-87
2024/01/01 00:31:11;;;;;;;0.10;0.10;;;;;;;3.67;72.08;101411.00;4932139;29;20099;-89
2024/01/01 00:33:37;;;;;;;0.10;0.10;;;;;;;3.67;71.87;101399.06;4916068;29;20036;-86
2024/01/01 00:36:02;;;;;;;0.10;0.10;;;;;;;3.63;72.08;101399.91;4931931;29;20039;-89
2024/01/01 00:38:28;;;;;;;0.20;0.20;;;;;;;3.55;71.58;101368.47;4918358;29;20106;-89
2024/01/01 00:40:53;;;;;;;0.10;0.10;;;;;;;3.56;71.75;101390.63;4919736;29;20042;-89
2024/01/01 00:43:19;;;;;;;0.20;0.20;;;;;;;3.57;72.40;101400.00;4936232;29;20437;-90
2024/01/01 00:45:44;;;;;;;0.10;0.10;;;;;;;3.58;72.22;101396.56;4935646;29;20414;-89
2024/01/01 00:48:10;;;;;;;0.20;0.20;;;;;;;3.60;72.23;101384.59;4935367;29;20505;-88
2024/01/01 00:50:35;;;;;;;0.13;0.13;;;;;;;3.63;71.84;101399.91;4936423;29;20047;-90
2024/01/01 00:53:01;;;;;;;0.10;0.10;;;;;;;3.60;72.14;101389.72;4936473;29;20028;-89
2024/01/01 00:55:26;;;;;;;0.10;0.10;;;;;;;3.42;72.24;101364.28;4934891;29;20502;-89
2024/01/01 00:57:53;;;;;;;0.10;0.10;;;;;;;3.60;72.46;101392.28;4934824;29;20059;-89
2024/01/01 01:00:18;;;;;;;0.10;0.10;;;;;;;3.54;72.21;101389.78;4935345;29;20110;-89
2024/01/01 01:02:44;;;;;;;0.10;0.10;;;;;;;3.50;72.01;101385.53;4934979;29;20483;-88
2024/01/01 01:05:09;;;;;;;0.10;0.10;;;;;;;3.52;72.13;101376.13;4935232;29;20171;-86
2024/01/01 01:07:36;;;;;;;0.10;0.10;;;;;;;3.56;72.33;101387.22;4919140;29;20139;-87
2024/01/01 01:10:04;;;;;;;0.10;0.10;;;;;;;3.60;72.35;101388.88;4936281;29;20027;-89
2024/01/01 01:12:30;;;;;;;0.10;0.10;;;;;;;3.49;72.66;101376.16;4934527;29;20546;-88
2024/01/01 01:14:55;;;;;;;0.10;0.10;;;;;;;3.64;72.23;101377.78;4934649;29;20031;-88
2024/01/01 01:17:21;;;;;;;0.10;0.10;;;;;;;3.61;71.80;101381.19;4935982;29;20079;-90
2024/01/01 01:19:46;;;;;;;0.20;0.20;;;;;;;3.36;71.96;101346.44;4918960;29;20031;-88
2024/01/01 01:22:12;;;;;;;0.20;0.20;;;;;;;3.43;72.00;101360.84;4934743;29;20032;-91
2024/01/01 01:24:38;;;;;;;0.10;0.10;;;;;;;3.23;72.50;101334.59;4936051;29;20028;-89
2024/01/01 01:27:03;;;;;;;0.10;0.10;;;;;;;3.36;72.80;101366.91;4935125;29;20462;-89
2024/01/01 01:29:29;;;;;;;0.10;0.10;;;;;;;3.36;72.99;101364.34;4935845;29;20063;-87
2024/01/01 01:31:54;;;;;;;0.10;0.10;;;;;;;3.26;72.92;101344.81;4918607;29;20036;-89
2024/01/01 01:34:21;;;;;;;0.10;0.10;;;;;;;3.32;72.89;101355.81;4934659;29;20038;-89
2024/01/01 01:36:47;;;;;;;0.10;0.10;;;;;;;3.37;73.10;101355.81;4919093;29;20047;-88
2024/01/01 01:39:12;;;;;;;0.10;0.10;;;;;;;3.40;72.92;101358.34;4935286;29;21046;-90
2024/01/01 01:41:38;;;;;;;0.10;0.10;;;;;;;3.22;72.27;101320.09;4918242;29;20059;-90
2024/01/01 01:44:04;;;;;;;0.10;0.10;;;;;;;3.36;72.39;101349.84;4934382;29;20468;-90
2024/01/01 01:46:30;;;;;;;0.10;0.10;;;;;;;3.31;72.57;101337.94;4918373;29;20031;-87
2024/01/01 01:48:56;;;;;;;0.10;0.10;;;;;;;3.30;72.50;101331.13;4917913;29;20170;-90
2024/01/01 01:51:21;;;;;;;0.20;0.20;;;;;;;3.50;72.11;101344.59;4918417;29;20034;-90
2024/01/01 01:53:47;;;;;;;0.20;0.20;;;;;;;3.31;72.66;101327.72;4933753;29;20104;-89
2024/01/01 01:56:14;;;;;;;0.20;0.20;;;;;;;3.14;73.15;101315.88;4934234;29;20028;-90
2024/01/01 01:58:40;;;;;;;0.10;0.10;;;;;;;3.36;73.29;101328.53;4918579;29;20066;-89
2024/01/01 02:01:06;;;;;;;0.10;0.10;;;;;;;3.36;72.87;101326.81;4934011;29;20024;-89
2024/01/01 02:03:32;;;;;;;0.10;0.10;;;;;;;3.33;72.89;101318.31;4918198;29;20038;-90
2024/01/01 02:05:57;;;;;;;0.20;0.20;;;;;;;3.42;73.06;101334.44;4934769;29;20520;-88
2024/01/01 02:08:23;;;;;;;0.20;0.20;;;;;;;3.39;73.08;101334.47;4917972;29;20485;-88
2024/01/01 02:10:48;;;;;;;0.10;0.10;;;;;;;3.19;73.14;101315.03;4934495;29;20495;-89
2024/01/01 02:13:27;;;;;;;0.20;0.20;;;;;;;3.41;72.94;101327.63;4918087;29;20076;-90
2024/01/01 02:15:53;;;;;;;0.10;0.10;;;;;;;3.41;72.70;101330.19;4917663;29;20501;-89
2024/01/01 02:18:19;;;;;;;0.10;0.10;;;;;;;3.40;72.51;101325.06;4918254;29;20024;-90
2024/01/01 02:20:44;;;;;;;0.10;0.10;;;;;;;3.38;72.73;101322.53;4933508;29;20031;-89
2024/01/01 02:23:10;;;;;;;0.10;0.10;;;;;;;3.45;72.38;101315.69;4933417;29;20060;-89
2024/01/01 02:25:35;;;;;;;0.20;0.20;;;;;;;3.36;72.84;101319.16;4933200;29;20083;-90
2024/01/01 02:28:01;;;;;;;0.10;0.10;;;;;;;3.22;72.82;101284.31;4933499;29;20028;-88
2024/01/01 02:30:26;;;;;;;0.10;0.10;;;;;;;3.24;72.66;101293.66;4934675;29;20395;-90
2024/01/01 02:32:52;;;;;;;0.10;0.10;;;;;;;3.37;72.80;101309.78;4917591;29;20111;-88
2024/01/01 02:35:17;;;;;;;0.10;0.10;;;;;;;3.22;73.45;101297.09;4917392;29;20087;-89
2024/01/01 02:37:43;;;;;;;0.10;0.10;;;;;;;3.20;73.49;101286.88;4934118;29;20035;-89
2024/01/01 02:40:09;;;;;;;0.10;0.10;;;;;;;3.35;73.23;101302.13;4917324;29;20036;-87
2024/01/01 02:42:35;;;;;;;0.10;0.10;;;;;;;3.37;72.84;101296.97;4917553;29;20090;-89
2024/01/01 02:45:00;;;;;;;0.10;0.10;;;;;;;3.14;72.80;101253.69;4933209;29;20110;-87
2024/01/01 02:47:26;;;;;;;0.20;0.20;;;;;;;3.41;72.95;101299.47;4934405;29;20031;-87
2024/01/01 02:49:51;;;;;;;0.10;0.10;;;;;;;3.42;72.84;101292.66;4917330;29;20085;-90
2024/01/01 02:52:17;;;;;;;0.20;0.20;;;;;;;3.42;72.61;101283.28;4933443;29;20028;-91
2024/01/01 02:54:42;;;;;;;0.20;0.20;;;;;;;3.48;72.72;101292.63;4932721;29;20042;-87
2024/01/01 02:57:08;;;;;;;0.10;0.10;;;;;;;3.50;72.98;101301.13;4917242;29;20036;-89
2024/01/01 02:59:33;;;;;;;0.10;0.10;;;;;;;3.48;72.58;101299.44;4933233;29;20028;-89
2024/01/01 03:01:59;;;;;;;0.10;0.10;;;;;;;3.34;72.59;101268.84;4932834;29;20494;-89
2024/01/01 03:04:28;;;;;;;0.20;0.20;;;;;;;3.64;71.86;101304.41;4934044;29;20031;-89
2024/01/01 03:06:53;;;;;;;0.15;0.15;;;;;;;3.58;72.10;101293.38;4932968;29;20071;-88
2024/01/01 03:09:19;;;;;;;0.10;0.10;;;;;;;3.62;71.83;101295.03;4917049;29;20040;-90
2024/01/01 03:11:45;;;;;;;0.10;0.10;;;;;;;3.61;72.08;101294.19;4933978;29;20418;-87
2024/01/01 03:14:10;;;;;;;0.10;0.10;;;;;;;3.59;72.39;101297.63;4933913;29;20051;-86
2024/01/01 03:16:36;;;;;;;0.10;0.10;;;;;;;3.59;72.20;101298.47;4933673;29;20379;-88
2024/01/01 03:19:01;;;;;;;0.10;0.10;;;;;;;3.35;72.70;101255.22;4916652;29;20074;-88
2024/01/01 03:21:27;;;;;;;0.10;0.10;;;;;;;3.39;72.89;101292.69;4932256;29;20470;-89
2024/01/01 03:23:52;;;;;;;0.10;0.10;;;;;;;3.32;72.83;101283.38;4916698;29;20027;-89
2024/01/01 03:26:18;;;;;;;0.10;0.10;;;;;;;3.22;72.81;101268.97;4933478;29;20051;-88
2024/01/01 03:28:43;;;;;;;0.10;0.10;;;;;;;3.19;73.31;101299.69;4900970;29;20028;-88
2024/01/01 03:31:09;;;;;;;0.20;0.20;;;;;;;3.20;73.26;101293.72;4916662;29;20513;-91
2024/01/01 03:33:35;;;;;;;0.10;0.10;;;;;;;3.19;72.97;101299.69;4932669;29;20086;-88
2024/01/01 03:36:00;;;;;;;0.10;0.10;;;;;;;3.06;73.24;101289.56;4916409;29;20039;-88
2024/01/01 03:38:26;;;;;;;0.20;0.20;;;;;;;3.02;73.44;101276.78;4932498;29;20040;-89
2024/01/01 03:40:51;;;;;;;0.10;0.10;;;;;;;2.96;73.13;101252.16;4917042;29;20059;-91
2024/01/01 03:43:17;;;;;;;0.20;0.20;;;;;;;3.14;72.93;101292.88;4933709;29;20118;-89
2024/01/01 03:45:43;;;;;;;0.10;0.10;;;;;;;3.09;72.49;101298.91;4932778;29;20024;-90
2024/01/01 03:48:08;;;;;;;0.20;0.20;;;;;;;2.96;72.95;101285.38;4932831;29;20067;-89
2024/01/01 03:50:34;;;;;;;0.17;0.17;;;;;;;3.02;73.16;101287.88;4932353;29;20087;-89
2024/01/01 03:52:59;;;;;;;0.10;0.10;;;;;;;3.03;72.89;101294.66;4916964;29;20031;-89
2024/01/01 03:55:25;;;;;;;0.10;0.10;;;;;;;3.07;73.07;101291.25;4932450;29;20143;-89
2024/01/01 03:57:51;;;;;;;0.10;0.10;;;;;;;3.16;72.94;101286.06;4916700;29;20031;-89
2024/01/01 04:00:16;;;;;;;0.10;0.10;;;;;;;3.12;72.77;101286.94;4932775;29;20060;-90
2024/01/01 04:02:42;;;;;;;0.10;0.10;;;;;;;3.04;73.53;101283.59;4901157;29;20086;-90
2024/01/01 04:05:08;;;;;;;0.20;0.20;;;;;;;3.12;73.59;101283.53;4933169;29;20549;-88
2024/01/01 04:07:34;;;;;;;0.20;0.20;;;;;;;3.14;73.92;101280.09;4917030;29;20102;-90
2024/01/01 04:10:02;;;;;;;0.10;0.10;;;;;;;3.07;74.50;101275.06;4916536;29;20086;-89
2024/01/01 04:12:27;;;;;;;0.10;0.10;;;;;;;3.04;75.09;101280.19;4933291;29;20080;-89
2024/01/01 04:14:53;;;;;;;0.10;0.10;;;;;;;3.02;75.43;101282.75;4919942;29;20494;-90
2024/01/01 04:17:18;;;;;;;0.10;0.10;;;;;;;3.06;75.74;101279.34;4936261;29;20435;-90
2024/01/01 04:19:47;;;;;;;0.10;0.10;;;;;;;2.85;75.31;101219.00;4936891;29;20095;-90
2024/01/01 04:22:15;;;;;;;0.20;0.20;;;;;;;3.09;75.90;101261.41;4920748;29;20105;-90
2024/01/01 04:24:44;;;;;;;0.20;0.20;;;;;;;3.12;75.92;101251.16;4920692;29;20051;-90
2024/01/01 04:27:10;;;;;;;0.20;0.20;;;;;;;3.09;75.96;101242.66;4920136;29;20036;-90
2024/01/01 04:29:36;;;;;;;0.10;0.10;;;;;;;3.21;75.51;101246.81;4920443;29;20054;-88
2024/01/01 04:32:01;;;;;;;0.10;0.10;;;;;;;3.17;75.40;101256.25;4920120;29;20111;-89
2024/01/01 04:34:27;;;;;;;0.10;0.10;;;;;;;3.10;76.12;101254.59;4919878;29;20066;-90
2024/01/01 04:36:52;;;;;;;0.10;0.10;;;;;;;3.14;76.42;101246.00;4936128;29;20446;-89
2024/01/01 04:39:18;;;;;;;0.10;0.10;;;;;;;3.19;75.84;101254.50;4935450;29;20031;-91
2024/01/01 04:41:44;;;;;;;0.10;0.10;;;;;;;3.11;75.69;101257.13;4935924;29;20024;-88
2024/01/01 04:44:09;;;;;;;0.20;0.20;;;;;;;3.16;75.87;101269.88;4919715;29;20028;-90
2024/01/01 04:46:35;;;;;;;0.10;0.10;;;;;;;3.19;75.54;101263.88;4935717;29;20039;-89
2024/01/01 04:49:00;;;;;;;0.10;0.10;;;;;;;3.16;76.42;101262.22;4935227;29;20031;-89
2024/01/01 04:51:26;;;;;;;0.10;0.10;;;;;;;3.24;76.04;101257.84;4935667;29;20027;-91
2024/01/01 04:53:51;;;;;;;0.10;0.10;;;;;;;3.14;75.96;101259.66;4935445;29;20028;-89
2024/01/01 04:56:17;;;;;;;0.10;0.10;;;;;;;3.09;76.01;101251.19;4935539;29;20506;-90
2024/01/01 04:58:46;;;;;;;0.20;0.20;;;;;;;3.28;75.77;101271.47;4935410;29;20032;-90
2024/01/01 05:01:11;;;;;;;0.10;0.10;;;;;;;3.16;76.03;101270.72;4936599;29;20038;-88
2024/01/01 05:03:37;;;;;;;0.10;0.10;;;;;;;3.16;75.81;101263.06;4919267;29;20027;-86
2024/01/01 05:06:02;;;;;;;0.20;0.20;;;;;;;3.21;75.79;101267.28;4935285;29;20039;-90
2024/01/01 05:08:28;;;;;;;0.10;0.10;;;;;;;3.03;76.11;101241.00;4936230;29;20024;-89
2024/01/01 05:10:53;;;;;;;0.20;0.20;;;;;;;3.10;76.47;101267.38;4935231;29;20035;-89
2024/01/01 05:13:19;;;;;;;0.10;0.10;;;;;;;2.98;76.47;101255.53;4918891;29;20107;-90
2024/01/01 05:15:44;;;;;;;0.20;0.20;;;;;;;2.99;76.63;101251.25;4934683;29;20063;-88
2024/01/01 05:18:10;;;;;;;0.10;0.10;;;;;;;2.86;76.27;101225.81;4935959;29;20133;-90
2024/01/01 05:20:35;;;;;;;0.20;0.20;;;;;;;2.98;76.17;101227.41;4934785;29;20541;-91
2024/01/01 05:23:01;;;;;;;0.10;0.10;;;;;;;3.23;75.92;101265.53;4919022;29;20632;-90
2024/01/01 05:25:26;;;;;;;0.10;0.10;;;;;;;3.25;75.95;101261.28;4934067;29;20395;-91
2024/01/01 05:27:52;;;;;;;0.10;0.10;;;;;;;2.97;76.20;101233.41;4934576;29;20032;-88
2024/01/01 05:30:18;;;;;;;0.20;0.20;;;;;;;3.12;75.29;101278.41;4934987;29;20024;-89
2024/01/01 05:32:43;;;;;;;0.20;0.20;;;;;;;3.15;75.01;101269.03;4934285;29;20458;-89
2024/01/01 05:35:09;;;;;;;0.10;0.10;;;;;;;3.11;74.98;101254.56;4934701;29;20036;-89
2024/01/01 05:37:34;;;;;;;0.20;0.20;;;;;;;3.10;74.49;101265.66;4934780;29;20039;-90
2024/01/01 05:40:00;;;;;;;0.20;0.20;;;;;;;2.99;74.87;101257.22;4918837;29;20135;-90
2024/01/01 05:42:25;;;;;;;0.20;0.20;;;;;;;2.88;75.08;101244.53;4934671;29;20023;-90
2024/01/01 05:44:51;;;;;;;0.20;0.20;;;;;;;2.88;74.86;101253.91;4935683;29;20059;-90
2024/01/01 05:47:17;;;;;;;0.10;0.10;;;;;;;2.90;74.94;101246.22;4934233;29;20083;-89
2024/01/01 05:49:43;;;;;;;0.10;0.10;;;;;;;2.96;74.59;101248.75;4934315;29;20494;-91
2024/01/01 05:52:08;;;;;;;0.20;0.20;;;;;;;2.91;74.59;101243.66;4918698;29;20484;-89
2024/01/01 05:54:34;;;;;;;0.10;0.10;;;;;;;2.93;74.54;101230.84;4934208;29;20502;-89
2024/01/01 05:56:59;;;;;;;0.20;0.20;;;;;;;2.82;74.52;101221.56;4934257;29;20478;-91
2024/01/01 05:59:25;;;;;;;0.20;0.20;;;;;;;2.96;74.44;101234.25;4934378;29;20034;-89
2024/01/01 06:01:50;;;;;;;0.20;0.20;;;;;;;2.91;74.11;101220.66;4918001;29;20039;-90
2024/01/01 06:04:16;;;;;;;0.10;0.10;;;;;;;2.81;74.68;101213.91;4918360;29;20039;-90
2024/01/01 06:06:41;;;;;;;0.10;0.10;;;;;;;2.73;74.67;101223.34;4902400;29;20047;-90
2024/01/01 06:09:07;;;;;;;0.10;0.10;;;;;;;2.76;74.80;101231.00;4917932;29;20035;-88
2024/01/01 06:11:33;;;;;;;0.20;0.20;;;;;;;2.80;74.87;101230.97;4935341;29;20032;-90
2024/01/01 06:13:59;;;;;;;0.10;0.10;;;;;;;2.87;74.64;101221.53;4933705;29;20075;-92
2024/01/01 06:16:25;;;;;;;0.10;0.10;;;;;;;2.90;74.54;101236.84;4917740;29;20422;-91
2024/01/01 06:18:51;;;;;;;0.10;0.10;;;;;;;2.85;74.88;101239.44;4918338;29;20031;-89
2024/01/01 06:21:16;;;;;;;0.20;0.20;;;;;;;2.82;74.93;101228.38;4933622;29;20036;-89
2024/01/01 06:23:45;;;;;;;0.10;0.10;;;;;;;2.88;74.93;101252.19;4917965;29;20155;-90
2024/01/01 06:26:11;;;;;;;0.10;0.10;;;;;;;2.86;74.96;101241.16;4918384;29;20043;-90
2024/01/01 06:28:37;;;;;;;0.20;0.20;;;;;;;2.82;74.97;101224.13;4934979;29;20028;-87
2024/01/01 06:31:03;;;;;;;0.20;0.20;;;;;;;2.84;75.16;101232.63;4933578;29;20034;-90
2024/01/01 06:33:29;;;;;;;0.10;0.10;;;;;;;2.97;75.15;101251.28;4933630;29;20035;-92
2024/01/01 06:35:55;;;;;;;0.20;0.20;;;;;;;3.03;74.59;101263.16;4933348;29;20058;-89
2024/01/01 06:38:21;;;;;;;0.10;0.10;;;;;;;3.00;75.20;101264.03;4933587;29;20034;-90
2024/01/01 06:40:46;;;;;;;0.10;0.10;;;;;;;2.92;75.75;101259.84;4933564;29;20082;-90
2024/01/01 06:43:12;;;;;;;0.20;0.20;;;;;;;3.10;75.40;101242.66;4933650;29;20495;-90
2024/01/01 06:45:38;;;;;;;0.10;0.10;;;;;;;3.15;75.09;101240.06;4933986;29;20032;-91
2024/01/01 06:48:03;;;;;;;0.20;0.20;;;;;;;3.26;74.77;101257.88;4933602;29;20038;-90
2024/01/01 06:50:30;;;;;;;0.20;0.20;;;;;;;3.23;74.80;101234.88;4933488;29;20027;-91
2024/01/01 06:52:55;;;;;;;0.10;0.10;;;;;;;3.34;74.56;101240.72;4934582;29;20039;-90
2024/01/01 06:55:22;;;;;;;0.20;0.20;;;;;;;3.31;74.71;101221.16;4933361;29;20163;-88
2024/01/01 06:57:48;;;;;;;0.10;0.10;;;;;;;3.50;73.99;101244.84;4917420;29;20438;-89
2024/01/01 07:00:15;;;;;;;0.10;0.10;;;;;;;3.53;74.02;101249.91;4917483;29;20055;-90
2024/01/01 07:02:41;;;;;;;0.10;0.10;;;;;;;3.45;74.46;101242.34;4933390;29;20027;-90
2024/01/01 07:05:07;;;;;;;0.20;0.20;;;;;;;3.50;74.16;101239.72;4917407;29;20058;-91
2024/01/01 07:07:33;;;;;;;0.10;0.10;;;;;;;3.56;74.21;101238.81;4933189;29;20502;-89
2024/01/01 07:09:59;;;;;;;0.10;0.10;;;;;;;3.53;74.02;101231.16;4933074;29;20101;-89
2024/01/01 07:12:27;;;;;;;0.20;0.20;;;;;;;3.41;74.40;101242.38;4933904;29;20471;-90
2024/01/01 07:14:54;;;;;;;0.20;0.20;;;;;;;3.42;74.75;101236.38;4917542;29;20051;-90
2024/01/01 07:17:19;;;;;;;0.20;0.20;;;;;;;3.55;74.49;101229.47;4917053;29;20038;-90
2024/01/01 07:19:45;;;;;;;0.20;0.20;;;;;;;3.36;74.88;101205.78;4917303;29;20114;-87
2024/01/01 07:22:11;;;;;;;0.10;0.10;;;;;;;3.52;74.84;101225.19;4932940;29;20028;-91
2024/01/01 07:24:37;;;;;;;0.20;0.20;;;;;;;3.52;74.69;101201.31;4932890;29;20025;-89
2024/01/01 07:27:02;;;;;;;0.20;0.20;;;;;;;3.65;74.50;101216.53;4932889;29;20059;-87
2024/01/01 07:29:28;;;;;;;0.20;0.20;;;;;;;3.80;74.87;101212.09;4932658;29;20083;-89
2024/01/01 07:31:54;;;;;;;0.20;0.20;;;;;;;3.88;74.38;101221.41;4932872;29;20047;-90
2024/01/01 07:34:20;;;;;;;0.20;0.20;;;;;;;3.84;74.56;101218.91;4916881;29;20028;-89
2024/01/01 07:36:46;;;;;;;0.20;0.20;;;;;;;3.71;74.23;101190.88;4917069;29;20038;-91
2024/01/01 07:39:12;;;;;;;0.20;0.20;;;;;;;4.01;74.08;101216.97;4932874;29;20027;-89
2024/01/01 07:41:38;;;;;;;0.20;0.20;;;;;;;3.86;74.28;101189.84;4917051;29;20032;-89
2024/01/01 07:44:04;;;;;;;0.20;0.20;;;;;;;4.10;73.96;101198.94;4932408;29;20470;-91
2024/01/01 07:46:29;;;;;;;0.10;0.10;;;;;;;4.08;74.27;101182.75;4932711;29;20119;-89
2024/01/01 07:48:55;;;;;;;0.10;0.10;;;;;;;4.09;74.97;101199.78;4938866;29;20454;-90
2024/01/01 07:51:22;;;;;;;0.20;0.20;;;;;;;4.26;74.55;101218.34;4922964;29;20027;-89
2024/01/01 07:53:48;;;;;;;0.20;0.20;;;;;;;4.19;74.29;101219.28;4939086;29;20034;-89
2024/01/01 07:56:14;;;;;;;0.20;0.20;;;;;;;4.06;74.40;101207.53;4938943;29;20478;-90
2024/01/01 07:58:39;;;;;;;0.10;0.10;;;;;;;4.26;74.27;101202.13;4938554;29;20098;-89
2024/01/01 08:01:06;;;;;;;0.20;0.20;;;;;;;4.01;74.32;101166.59;4938854;29;20067;-89
2024/01/01 08:03:32;;;;;;;0.20;0.20;;;;;;;4.26;74.27;101213.22;4939057;29;20035;-88
2024/01/01 08:05:57;;;;;;;0.10;0.10;;;;;;;4.28;74.16;101210.63;4922980;29;20090;-89
2024/01/01 08:08:23;;;;;;;0.20;0.20;;;;;;;4.26;74.24;101218.34;4939064;29;20038;-88
2024/01/01 08:10:49;;;;;;;0.20;0.20;;;;;;;4.22;74.15;101206.44;4938963;29;21040;-89
2024/01/01 08:13:14;;;;;;;0.20;0.20;;;;;;;4.30;74.05;101212.31;4938176;29;20139;-90
2024/01/01 08:15:40;;;;;;;0.20;0.20;;;;;;;4.30;74.54;101224.25;4938540;29;20096;-91
2024/01/01 08:18:06;;;;;;;0.20;0.20;;;;;;;4.34;74.33;101217.41;4938827;29;20470;-89
2024/01/01 08:20:31;;;;;;;0.20;0.20;;;;;;;4.31;74.92;101214.00;4939115;29;20541;-89
2024/01/01 08:22:57;;;;;;;0.20;0.20;;;;;;;4.09;74.18;101194.66;4939818;29;20059;-89
2024/01/01 08:25:22;;;;;;;0.13;0.13;;;;;;;4.30;73.71;101209.75;4922603;29;20039;-91
2024/01/01 08:27:49;;;;;;;0.20;0.20;;;;;;;4.46;73.37;101235.16;4906899;29;20023;-90
2024/01/01 08:30:14;;;;;;;0.20;0.20;;;;;;;4.58;73.06;101234.97;4922951;29;20482;-89
2024/01/01 08:32:40;;;;;;;0.20;0.20;;;;;;;4.55;72.35;101232.47;4938619;29;20090;-89
2024/01/01 08:35:06;;;;;;;0.20;0.20;;;;;;;4.42;72.57;101218.97;4938525;29;20040;-89
2024/01/01 08:37:32;;;;;;;0.20;0.20;;;;;;;4.40;72.29;101223.28;4938590;29;20047;-90
2024/01/01 08:39:57;;;;;;;0.20;0.20;;;;;;;4.39;72.71;101210.50;4922841;29;20063;-91
2024/01/01 08:42:23;;;;;;;0.20;0.20;;;;;;;4.45;73.24;101216.38;4938991;29;20027;-88
2024/01/01 08:44:48;;;;;;;0.20;0.20;;;;;;;4.47;73.22;101224.03;4939204;29;20027;-89
2024/01/01 08:47:15;;;;;;;0.20;0.20;;;;;;;4.25;73.28;101185.94;4939469;29;20387;-89
2024/01/01 08:49:41;;;;;;;0.20;0.20;;;;;;;4.56;74.67;101221.34;4939561;29;20122;-91
2024/01/01 08:52:07;;;;;;;0.10;0.10;;;;;;;4.72;74.36;101217.69;4938305;29;20086;-90
2024/01/01 08:54:32;;;;;;;0.10;0.10;;;;;;;4.70;73.63;101206.59;4938431;29;20039;-89
2024/01/01 08:56:58;;;;;;;0.20;0.20;;;;;;;4.54;73.40;101195.75;4937833;29;20445;-90
2024/01/01 08:59:24;;;;;;;0.10;0.10;;;;;;;4.60;73.79;101182.81;4920469;29;20031;-91
2024/01/01 09:01:50;;;;;;;0.10;0.10;;;;;;;4.94;73.77;101219.91;4935089;29;20482;-91
2024/01/01 09:04:17;;;;;;;0.20;0.20;;;;;;;4.99;73.46;101218.09;4935174;29;20553;-90
2024/01/01 09:06:43;;;;;;;0.20;0.20;;;;;;;5.12;73.22;101214.50;4936423;29;20039;-89
2024/01/01 09:09:10;;;;;;;0.20;0.20;;;;;;;5.19;72.73;101219.47;4935260;29;20031;-90
2024/01/01 09:11:36;;;;;;;0.10;0.10;;;;;;;5.28;73.16;101223.59;4919234;29;20126;-90
2024/01/01 09:14:01;;;;;;;0.20;0.20;;;;;;;5.30;72.99;101211.56;4918725;29;20055;-90
2024/01/01 09:16:29;;;;;;;0.10;0.10;;;;;;;5.29;72.85;101198.78;4918862;29;20035;-90
2024/01/01 09:18:56;;;;;;;0.20;0.20;;;;;;;5.45;72.43;101195.91;4935321;29;20032;-91
2024/01/01 09:21:24;;;;;;;0.20;0.20;;;;;;;5.54;71.77;101188.94;4919000;29;20035;-90
2024/01/01 09:23:49;;;;;;;0.20;0.20;;;;;;;5.60;72.38;101181.09;4935309;29;20042;-91
2024/01/01 09:26:15;;;;;;;0.20;0.20;;;;;;;5.65;72.14;101163.88;4919108;29;20028;-90
2024/01/01 09:28:40;;;;;;;0.20;0.20;;;;;;;5.78;71.92;101187.59;4919026;29;20455;-89
2024/01/01 09:31:06;;;;;;;0.20;0.20;;;;;;;5.83;71.93;101183.22;4918989;29;20603;-90
2024/01/01 09:33:32;;;;;;;0.10;0.10;;;;;;;5.71;72.26;101181.75;4934434;29;20604;-89
2024/01/01 09:35:57;;;;;;;0.20;0.20;;;;;;;5.75;72.52;101183.38;4934725;29;20103;-90
2024/01/01 09:38:23;;;;;;;0.10;0.10;;;;;;;5.84;72.56;101183.19;4935518;29;20123;-88
2024/01/01 09:40:48;;;;;;;0.20;0.20;;;;;;;5.76;72.57;101162.78;4934915;29;20036;-90
2024/01/01 09:43:17;;;;;;;0.20;0.20;;;;;;;5.75;72.81;101173.09;4934775;29;20035;-90
2024/01/01 09:45:43;;;;;;;0.20;0.20;;;;;;;5.89;72.67;101160.81;4934528;29;20123;-89
2024/01/01 09:48:09;;;;;;;0.20;0.20;;;;;;;5.89;72.64;101160.81;4918692;29;20126;-91
2024/01/01 09:50:34;;;;;;;0.20;0.20;;;;;;;5.91;72.51;101161.69;4934355;29;20509;-90
2024/01/01 09:53:00;;;;;;;0.20;0.20;;;;;;;5.93;72.30;101162.47;4918348;29;20111;-89
2024/01/01 09:55:26;;;;;;;0.20;0.20;;;;;;;5.90;72.21;101142.00;4918487;29;20383;-90
2024/01/01 09:57:52;;;;;;;0.20;0.20;;;;;;;6.09;72.14;101152.69;4934337;29;20031;-90
2024/01/01 10:00:21;;;;;;;0.20;0.20;;;;;;;6.01;71.72;101111.81;4918453;29;20095;-90
2024/01/01 10:02:47;;;;;;;0.20;0.20;;;;;;;6.27;71.46;101136.88;4918514;29;20490;-90
2024/01/01 10:05:13;;;;;;;0.10;0.10;;;;;;;6.15;71.20;101105.50;4934192;29;20054;-90
2024/01/01 10:07:39;;;;;;;0.20;0.20;;;;;;;6.24;71.90;101123.28;4934027;29;20031;-90
2024/01/01 10:10:05;;;;;;;0.20;0.20;;;;;;;6.29;72.16;101124.00;4933512;29;20024;-89
2024/01/01 10:12:32;;;;;;;0.20;0.20;;;;;;;6.28;71.96;101119.72;4918059;29;20038;-88
2024/01/01 10:14:58;;;;;;;0.20;0.20;;;;;;;6.42;71.57;101125.41;4934051;29;20055;-89
2024/01/01 10:17:23;;;;;;;0.10;0.10;;;;;;;6.43;71.24;101116.81;4902448;29;20070;-89
2024/01/01 10:19:50;;;;;;;0.20;0.20;;;;;;;6.58;71.06;101116.44;4933673;29;20031;-90
2024/01/01 10:22:18;;;;;;;0.20;0.20;;;;;;;6.57;70.79;101113.91;4917993;29;20034;-90
2024/01/01 10:24:47;;;;;;;0.20;0.20;;;;;;;6.48;70.84;101080.72;4934087;29;20063;-90
2024/01/01 10:27:16;;;;;;;0.20;0.20;;;;;;;6.70;70.54;101096.47;4933808;29;20035;-90
2024/01/01 10:29:42;;;;;;;0.20;0.20;;;;;;;6.55;70.80;101074.53;4933866;29;20443;-90
2024/01/01 10:32:08;;;;;;;0.20;0.20;;;;;;;6.60;70.44;101080.44;4917728;29;20094;-90
2024/01/01 10:34:34;;;;;;;0.20;0.20;;;;;;;6.67;70.42;101070.81;4933315;29;20032;-91
2024/01/01 10:37:01;;;;;;;0.20;0.20;;;;;;;6.75;70.33;101081.75;4933310;29;20032;-90
2024/01/01 10:39:27;;;;;;;0.10;0.10;;;;;;;6.80;70.62;101074.78;4933450;29;20039;-89
2024/01/01 10:41:52;;;;;;;0.20;0.20;;;;;;;6.84;70.48;101078.94;4917680;29;20027;-90
2024/01/01 10:44:18;;;;;;;0.20;0.20;;;;;;;6.78;70.23;101067.06;4933546;29;20067;-90
2024/01/01 10:46:46;;;;;;;0.20;0.20;;;;;;;6.79;70.46;101073.09;4934521;29;20043;-90
2024/01/01 10:49:15;;;;;;;0.20;0.20;;;;;;;6.82;70.65;101060.97;4933214;29;20027;-88
2024/01/01 10:51:51;;;;;;;0.20;0.20;;;;;;;6.98;70.35;101061.44;4917195;29;20062;-90
2024/01/01 10:54:32;;;;;;;0.20;0.20;;;;;;;7.08;70.12;101059.41;4933065;29;20038;-90
2024/01/01 10:57:27;;;;;;;0.20;0.20;;;;;;;7.07;70.62;101040.56;4934218;29;20039;-90
2024/01/01 11:00:00;;;;;;;0.20;0.20;;;;;;;7.09;69.97;101025.13;4933252;29;20027;-89
2024/01/01 11:02:26;;;;;;;0.20;0.20;;;;;;;7.23;69.60;101035.84;4917096;29;20028;-89
2024/01/01 11:05:12;;;;;;;0.20;0.20;;;;;;;7.38;69.42;101037.16;4917364;29;20028;-90
2024/01/01 11:08:10;;;;;;;0.20;0.20;;;;;;;7.44;69.44;101039.53;4931976;29;20035;-90
2024/01/01 11:10:38;;;;;;;0.20;0.20;;;;;;;7.45;68.92;101048.94;4912034;29;20082;-91
2024/01/01 11:13:04;;;;;;;0.20;0.20;;;;;;;7.46;69.17;101035.16;4933801;29;20107;-89
2024/01/01 11:15:48;;;;;;;0.20;0.20;;;;;;;7.48;68.57;101029.09;4932793;29;20027;-90
2024/01/01 11:18:16;;;;;;;0.20;0.20;;;;;;;7.55;68.83;101031.47;4933013;29;20046;-91
2024/01/01 11:20:52;;;;;;;0.20;0.20;;;;;;;7.52;68.51;101019.56;4932450;29;20497;-91
2024/01/01 11:23:43;;;;;;;0.20;0.20;;;;;;;7.62;68.38;101020.97;4932044;29;20031;-89
2024/01/01 11:26:30;;;;;;;0.20;0.20;;;;;;;7.69;67.96;101011.31;4932760;29;20038;-90
2024/01/01 11:28:57;;;;;;;0.20;0.20;;;;;;;7.69;68.27;101014.75;4934127;29;20482;-91
2024/01/01 11:31:24;;;;;;;0.20;0.20;;;;;;;7.74;68.42;100996.56;4916732;29;20498;-90